Time;durP1;ratioP1;P1;durP2;ratioP2;P2;SDS_P1;SDS_P2;PMS_P1;PMS_P2;Temp;Humidity;BMP_temperature;BMP_pressure;BME280_temperature;BME280_humidity;BME280_pressure;Samples;Min_cycle;Max_cycle;Signal;HPM_P1;HPM_P2
2022/05/25 00:00:38;;;;;;;5.45;2.92;;;;;;;;;;5052745;27;96736;-71
2022/05/25 00:03:04;;;;;;;4.35;2.47;;;;;;;;;;5053688;27;97205;-73
2022/05/25 00:05:31;;;;;;;4.78;2.60;;;;;;;;;;5069440;27;97370;-72
2022/05/25 00:07:58;;;;;;;4.50;2.88;;;;;;;;;;5063692;27;96675;-73
2022/05/25 00:10:24;;;;;;;4.07;2.67;;;;;;;;;;5053030;27;97515;-73
2022/05/25 00:12:51;;;;;;;5.55;2.88;;;;;;;;;;5053016;27;95314;-73
2022/05/25 00:15:17;;;;;;;5.00;3.03;;;;;;;;;;5052845;27;96815;-72
2022/05/25 00:17:43;;;;;;;6.88;2.92;;;;;;;;;;5056970;27;97258;-71
2022/05/25 00:20:10;;;;;;;4.28;2.90;;;;;;;;;;5063054;27;96309;-72
2022/05/25 00:22:48;;;;;;;9.38;2.78;;;;;;;;;;5052771;27;95690;-71
2022/05/25 00:25:27;;;;;;;10.63;3.47;;;;;;;;;;5051892;27;96545;-70
2022/05/25 00:27:54;;;;;;;3.80;2.33;;;;;;;;;;5055939;27;95122;-70
2022/05/25 00:30:20;;;;;;;5.53;2.72;;;;;;;;;;5052026;27;97499;-71
2022/05/25 00:32:47;;;;;;;8.68;2.53;;;;;;;;;;5052582;27;95248;-71
2022/05/25 00:35:15;;;;;;;7.40;2.72;;;;;;;;;;5053614;27;96915;-71
2022/05/25 00:37:41;;;;;;;4.55;2.90;;;;;;;;;;5052691;27;97441;-72
2022/05/25 00:40:10;;;;;;;4.70;2.90;;;;;;;;;;5050879;27;96965;-71
2022/05/25 00:42:37;;;;;;;4.93;2.42;;;;;;;;;;5052540;27;97145;-71
2022/05/25 00:45:04;;;;;;;3.95;2.55;;;;;;;;;;5052568;27;97690;-73
2022/05/25 00:47:31;;;;;;;4.57;2.60;;;;;;;;;;5051767;27;95240;-72
2022/05/25 00:49:58;;;;;;;8.57;3.17;;;;;;;;;;5057094;27;96859;-72
2022/05/25 00:52:25;;;;;;;6.05;2.85;;;;;;;;;;5070502;27;95096;-71
2022/05/25 00:54:53;;;;;;;6.00;2.90;;;;;;;;;;5053532;27;96603;-73
2022/05/25 00:57:21;;;;;;;4.57;3.03;;;;;;;;;;5055968;27;97389;-73
2022/05/25 01:00:04;;;;;;;4.05;2.58;;;;;;;;;;5054712;27;95197;-72
2022/05/25 01:02:32;;;;;;;7.85;3.05;;;;;;;;;;5055551;27;96924;-73
2022/05/25 01:04:59;;;;;;;4.55;2.63;;;;;;;;;;5060634;27;97399;-72
2022/05/25 01:07:37;;;;;;;5.32;3.22;;;;;;;;;;5061785;27;95179;-72
2022/05/25 01:10:07;;;;;;;8.48;3.17;;;;;;;;;;5055306;27;96906;-72
2022/05/25 01:12:34;;;;;;;4.50;2.72;;;;;;;;;;5058568;27;97252;-72
2022/05/25 01:15:03;;;;;;;5.25;3.03;;;;;;;;;;5055444;27;96820;-75
2022/05/25 01:17:35;;;;;;;5.70;3.13;;;;;;;;;;5054304;27;97561;-72
2022/05/25 01:20:02;;;;;;;9.32;3.28;;;;;;;;;;5055211;27;97175;-71
2022/05/25 01:22:38;;;;;;;6.00;3.28;;;;;;;;;;5056103;27;96461;-72
2022/05/25 01:25:23;;;;;;;10.07;3.10;;;;;;;;;;5071300;27;96295;-73
2022/05/25 01:27:51;;;;;;;7.15;3.25;;;;;;;;;;5059805;27;96847;-72
2022/05/25 01:30:19;;;;;;;7.72;3.13;;;;;;;;;;5053060;27;95962;-72
2022/05/25 01:32:45;;;;;;;6.70;3.60;;;;;;;;;;5055744;27;97328;-73
2022/05/25 01:35:32;;;;;;;9.45;3.63;;;;;;;;;;5058592;27;95241;-73
2022/05/25 01:38:04;;;;;;;14.25;3.45;;;;;;;;;;5054439;27;96579;-74
2022/05/25 01:40:35;;;;;;;5.82;3.67;;;;;;;;;;5062188;27;95162;-72
2022/05/25 01:43:10;;;;;;;6.22;3.28;;;;;;;;;;5075892;27;96723;-73
2022/05/25 01:45:40;;;;;;;5.35;3.15;;;;;;;;;;5074996;27;97401;-72
2022/05/25 01:48:08;;;;;;;5.68;3.45;;;;;;;;;;5060770;27;95189;-72
2022/05/25 01:50:40;;;;;;;4.30;2.88;;;;;;;;;;5056806;27;96807;-71
2022/05/25 01:53:07;;;;;;;7.30;3.75;;;;;;;;;;5075102;27;97488;-73
2022/05/25 01:55:43;;;;;;;5.90;3.53;;;;;;;;;;5072919;27;95301;-73
2022/05/25 01:58:11;;;;;;;8.13;3.60;;;;;;;;;;5074356;27;97006;-75
2022/05/25 02:00:42;;;;;;;6.55;3.53;;;;;;;;;;5073925;27;95349;-73
2022/05/25 02:06:13;;;;;;;5.60;3.25;;;;;;;;;;5073594;27;97281;-73
2022/05/25 02:08:50;;;;;;;10.15;3.65;;;;;;;;;;5058433;27;95383;-74
2022/05/25 02:11:37;;;;;;;5.65;3.75;;;;;;;;;;5054272;27;97166;-72
2022/05/25 02:14:12;;;;;;;5.35;3.17;;;;;;;;;;5054077;27;97617;-71
2022/05/25 02:16:49;;;;;;;5.47;3.15;;;;;;;;;;5054713;27;94978;-72
2022/05/25 02:19:15;;;;;;;5.30;3.22;;;;;;;;;;5053381;27;97094;-71
2022/05/25 02:21:53;;;;;;;5.93;3.75;;;;;;;;;;5057736;27;97463;-71
2022/05/25 02:24:23;;;;;;;5.38;3.50;;;;;;;;;;5054790;27;96753;-71
2022/05/25 02:26:54;;;;;;;7.75;3.45;;;;;;;;;;5052338;27;97411;-73
2022/05/25 02:29:20;;;;;;;6.68;3.60;;;;;;;;;;5053937;27;95740;-72
2022/05/25 02:31:49;;;;;;;5.45;3.67;;;;;;;;;;5054595;27;96794;-70
2022/05/25 02:34:16;;;;;;;6.50;3.90;;;;;;;;;;5053057;27;97242;-73
2022/05/25 02:36:44;;;;;;;5.63;3.58;;;;;;;;;;5054466;27;95229;-72
2022/05/25 02:39:11;;;;;;;6.88;3.63;;;;;;;;;;5054602;27;97115;-72
2022/05/25 02:41:42;;;;;;;4.65;2.92;;;;;;;;;;5063044;27;97425;-74
2022/05/25 02:44:09;;;;;;;6.20;3.85;;;;;;;;;;5074955;27;96820;-72
2022/05/25 02:46:35;;;;;;;6.55;3.60;;;;;;;;;;5074209;27;97332;-73
2022/05/25 02:49:01;;;;;;;6.72;3.58;;;;;;;;;;5061973;27;95565;-72
2022/05/25 02:51:28;;;;;;;7.90;3.58;;;;;;;;;;5052602;27;96760;-73
2022/05/25 02:53:54;;;;;;;6.40;3.85;;;;;;;;;;5067830;27;96227;-75
2022/05/25 02:56:20;;;;;;;6.03;4.07;;;;;;;;;;5059045;27;95889;-73
2022/05/25 02:58:47;;;;;;;7.20;4.10;;;;;;;;;;5063314;27;95788;-74
2022/05/25 03:01:13;;;;;;;5.93;3.75;;;;;;;;;;5053296;27;96179;-74
2022/05/25 03:03:40;;;;;;;6.43;3.58;;;;;;;;;;5056076;27;95245;-71
2022/05/25 03:06:07;;;;;;;5.13;3.15;;;;;;;;;;5054031;27;97522;-71
2022/05/25 03:08:35;;;;;;;6.45;3.85;;;;;;;;;;5052517;27;95302;-71
2022/05/25 03:11:03;;;;;;;5.55;3.83;;;;;;;;;;5053844;27;96816;-71
2022/05/25 03:13:30;;;;;;;7.43;3.55;;;;;;;;;;5063310;27;96403;-71
2022/05/25 03:15:57;;;;;;;6.35;4.07;;;;;;;;;;5073757;27;95374;-72
2022/05/25 03:18:23;;;;;;;9.55;4.10;;;;;;;;;;5070245;27;96923;-71
2022/05/25 03:20:50;;;;;;;6.75;4.00;;;;;;;;;;5053292;27;96926;-73
2022/05/25 03:23:17;;;;;;;6.20;4.03;;;;;;;;;;5053395;27;95932;-74
2022/05/25 03:25:44;;;;;;;7.07;3.85;;;;;;;;;;5055108;27;96848;-73
2022/05/25 03:28:10;;;;;;;7.80;4.00;;;;;;;;;;5061762;27;95490;-75
2022/05/25 03:30:37;;;;;;;7.15;4.22;;;;;;;;;;5052369;27;96135;-75
2022/05/25 03:33:03;;;;;;;7.50;4.18;;;;;;;;;;5053201;27;97218;-74
2022/05/25 03:35:29;;;;;;;6.88;4.13;;;;;;;;;;5053416;27;95322;-76
2022/05/25 03:37:56;;;;;;;7.65;3.97;;;;;;;;;;5054065;27;97184;-75
2022/05/25 03:40:22;;;;;;;6.07;3.95;;;;;;;;;;5056626;27;97278;-73
2022/05/25 03:42:48;;;;;;;7.38;4.13;;;;;;;;;;5053414;27;95184;-73
2022/05/25 03:45:15;;;;;;;5.97;3.83;;;;;;;;;;5055499;27;97072;-72
2022/05/25 03:47:46;;;;;;;6.95;4.50;;;;;;;;;;5076787;27;97185;-71
2022/05/25 03:50:13;;;;;;;7.20;4.10;;;;;;;;;;5058354;27;95874;-71
2022/05/25 03:52:39;;;;;;;5.28;3.47;;;;;;;;;;5052324;27;97252;-72
2022/05/25 03:55:06;;;;;;;8.18;3.42;;;;;;;;;;5053092;27;95217;-73
2022/05/25 03:57:32;;;;;;;6.70;3.72;;;;;;;;;;5062514;27;96822;-72
2022/05/25 03:59:59;;;;;;;6.20;3.53;;;;;;;;;;5067988;27;97355;-71
2022/05/25 04:02:25;;;;;;;7.32;3.47;;;;;;;;;;5072906;27;95244;-70
2022/05/25 04:05:10;;;;;;;6.97;3.95;;;;;;;;;;5073247;27;96738;-72
2022/05/25 04:07:38;;;;;;;7.22;3.78;;;;;;;;;;5072596;27;97343;-71
2022/05/25 04:10:05;;;;;;;6.13;3.67;;;;;;;;;;5066575;27;95564;-72
2022/05/25 04:12:31;;;;;;;6.43;4.00;;;;;;;;;;5065376;27;97365;-73
2022/05/25 04:14:58;;;;;;;7.38;3.42;;;;;;;;;;5073394;27;95258;-73
2022/05/25 04:17:24;;;;;;;6.68;3.80;;;;;;;;;;5072812;27;96000;-74
2022/05/25 04:19:50;;;;;;;7.35;3.92;;;;;;;;;;5066459;27;96060;-75
2022/05/25 04:22:18;;;;;;;7.53;4.00;;;;;;;;;;5073196;27;95445;-75
2022/05/25 04:24:44;;;;;;;9.23;3.58;;;;;;;;;;5073389;27;96817;-73
2022/05/25 04:27:12;;;;;;;6.05;3.30;;;;;;;;;;5069926;27;96460;-74
2022/05/25 04:29:39;;;;;;;6.35;3.55;;;;;;;;;;5069105;27;96606;-74
2022/05/25 04:32:06;;;;;;;6.65;3.85;;;;;;;;;;5067131;27;96821;-74
2022/05/25 04:34:32;;;;;;;5.30;3.25;;;;;;;;;;5075931;27;95352;-75
2022/05/25 04:37:48;;;;;;;6.57;4.05;;;;;;;;;;5076861;27;96786;-74
2022/05/25 04:39:45;;;;;;;5.13;3.17;;;;;;;;;;5073138;27;97306;-73
2022/05/25 04:42:12;;;;;;;8.13;4.22;;;;;;;;;;5071356;27;95197;-71
2022/05/25 04:44:38;;;;;;;7.10;4.07;;;;;;;;;;5076459;27;96760;-72
2022/05/25 04:47:08;;;;;;;7.85;3.83;;;;;;;;;;5075393;27;96409;-74
2022/05/25 04:49:35;;;;;;;6.93;4.07;;;;;;;;;;5074835;27;95319;-74
2022/05/25 19:14:44;;;;;;;2.45;1.10;;;;;;;;;;5070896;27;95295;-70
2022/05/25 19:17:11;;;;;;;1.35;1.08;;;;;;;;;;5069889;27;97216;-73
2022/05/25 19:19:43;;;;;;;2.33;1.10;;;;;;;;;;5069547;27;95216;-76
2022/05/25 19:22:13;;;;;;;2.60;1.10;;;;;;;;;;5053653;27;96552;-75
2022/05/25 19:24:40;;;;;;;1.23;1.10;;;;;;;;;;5048624;27;97446;-72
2022/05/25 19:27:06;;;;;;;1.70;1.30;;;;;;;;;;5062884;27;95577;-69
2022/05/25 19:29:33;;;;;;;1.10;1.00;;;;;;;;;;5068513;27;96653;-73
2022/05/25 19:32:01;;;;;;;1.73;1.00;;;;;;;;;;5056890;27;97289;-74
2022/05/25 19:34:28;;;;;;;1.92;1.38;;;;;;;;;;5056035;27;95413;-72
2022/05/25 19:36:55;;;;;;;2.08;1.42;;;;;;;;;;5057775;27;97337;-75
2022/05/25 19:39:23;;;;;;;5.30;1.58;;;;;;;;;;5066420;27;96420;-71
2022/05/25 19:41:50;;;;;;;3.40;1.30;;;;;;;;;;5045441;27;97830;-71
2022/05/25 19:44:19;;;;;;;1.40;1.27;;;;;;;;;;5067886;27;96383;-73
2022/05/25 19:46:47;;;;;;;1.60;1.10;;;;;;;;;;5050849;27;95281;-74
2022/05/25 19:49:14;;;;;;;2.95;1.23;;;;;;;;;;5048573;27;96624;-73
2022/05/25 19:51:42;;;;;;;4.30;1.30;;;;;;;;;;5037286;27;97350;-73
2022/05/25 19:54:08;;;;;;;2.10;1.30;;;;;;;;;;5052301;27;95215;-74
2022/05/25 19:56:35;;;;;;;2.28;1.27;;;;;;;;;;5049693;27;96970;-73
2022/05/25 19:59:01;;;;;;;3.20;1.98;;;;;;;;;;5048249;27;95463;-75
2022/05/25 20:01:27;;;;;;;1.70;1.30;;;;;;;;;;5034592;27;95806;-73
2022/05/25 20:03:54;;;;;;;1.55;1.20;;;;;;;;;;5049390;27;97222;-73
2022/05/25 20:06:20;;;;;;;1.75;1.40;;;;;;;;;;5046543;27;95872;-72
2022/05/25 20:08:47;;;;;;;4.50;1.42;;;;;;;;;;5047250;27;96873;-71
2022/05/25 20:11:13;;;;;;;4.93;1.45;;;;;;;;;;5027879;27;96048;-73
2022/05/25 20:13:40;;;;;;;2.42;1.45;;;;;;;;;;5064343;27;96073;-73
2022/05/25 20:16:06;;;;;;;2.50;1.63;;;;;;;;;;5070914;27;96738;-71
2022/05/25 20:18:32;;;;;;;1.88;1.30;;;;;;;;;;5051200;27;97295;-72
2022/05/25 20:21:01;;;;;;;3.55;1.70;;;;;;;;;;5048097;27;96789;-75
2022/05/25 20:23:28;;;;;;;3.47;1.83;;;;;;;;;;5060771;27;97022;-70
2022/05/25 20:25:54;;;;;;;2.17;1.70;;;;;;;;;;5058740;27;95381;-74
2022/05/25 20:28:21;;;;;;;2.35;1.65;;;;;;;;;;5063707;27;96783;-75
2022/05/25 20:30:47;;;;;;;2.85;1.65;;;;;;;;;;5075591;27;97270;-74
2022/05/25 20:33:15;;;;;;;2.85;1.90;;;;;;;;;;5055285;27;95193;-74
2022/05/25 20:35:43;;;;;;;2.20;1.63;;;;;;;;;;5054840;27;96540;-74
2022/05/25 20:38:14;;;;;;;3.17;1.85;;;;;;;;;;5038067;27;97222;-73
2022/05/25 20:40:41;;;;;;;2.65;1.80;;;;;;;;;;5050852;27;95307;-71
2022/05/25 20:43:07;;;;;;;2.60;1.70;;;;;;;;;;5054032;27;98860;-71
2022/05/25 20:45:33;;;;;;;2.83;1.83;;;;;;;;;;5050795;27;96167;-71
2022/05/25 20:47:59;;;;;;;2.90;1.88;;;;;;;;;;5050604;27;96838;-73
2022/05/25 20:50:26;;;;;;;2.60;1.88;;;;;;;;;;5033880;28;97236;-72
2022/05/25 20:52:53;;;;;;;3.13;1.77;;;;;;;;;;5034621;28;95310;-73
2022/05/25 20:55:20;;;;;;;4.97;1.83;;;;;;;;;;5034577;27;96784;-71
2022/05/25 20:57:51;;;;;;;2.35;1.70;;;;;;;;;;5034325;28;97390;-73
2022/05/25 21:00:28;;;;;;;2.80;1.67;;;;;;;;;;5037181;27;95101;-72
2022/05/25 21:02:55;;;;;;;2.85;1.55;;;;;;;;;;5057583;27;96743;-74
2022/05/25 21:05:21;;;;;;;2.88;1.65;;;;;;;;;;5051575;27;95426;-75
2022/05/25 21:07:47;;;;;;;2.10;1.58;;;;;;;;;;5053656;27;96749;-72
2022/05/25 21:10:15;;;;;;;4.53;2.13;;;;;;;;;;5054028;27;97338;-71
2022/05/25 21:12:42;;;;;;;3.25;1.90;;;;;;;;;;5053915;27;95334;-74
2022/05/25 21:15:09;;;;;;;4.05;2.05;;;;;;;;;;5051075;27;96221;-76
2022/05/25 21:17:35;;;;;;;3.10;1.77;;;;;;;;;;5034710;28;97281;-76
2022/05/25 21:20:05;;;;;;;3.30;1.88;;;;;;;;;;5034340;28;95442;-73
2022/05/25 21:22:32;;;;;;;4.40;2.03;;;;;;;;;;5034921;28;96753;-70
2022/05/25 21:24:58;;;;;;;3.00;1.80;;;;;;;;;;5056468;27;95495;-72
2022/05/25 21:27:25;;;;;;;2.65;1.80;;;;;;;;;;5053134;27;96753;-71
2022/05/25 21:29:51;;;;;;;4.78;2.28;;;;;;;;;;5054843;27;97466;-70
2022/05/25 21:35:05;;;;;;;6.70;2.45;;;;;;;;;;5054779;27;96793;-76
2022/05/25 21:37:34;;;;;;;3.63;1.95;;;;;;;;;;5053514;27;97507;-76
2022/05/25 21:40:01;;;;;;;4.22;2.08;;;;;;;;;;5054297;27;95524;-77
2022/05/25 21:42:28;;;;;;;3.70;1.90;;;;;;;;;;5054222;27;95949;-74
2022/05/25 21:44:54;;;;;;;4.25;2.13;;;;;;;;;;5044762;27;97710;-76
2022/05/25 21:50:06;;;;;;;4.18;2.30;;;;;;;;;;5054765;27;97283;-74
2022/05/25 21:52:34;;;;;;;3.85;2.17;;;;;;;;;;5054299;27;95355;-71
2022/05/25 21:55:01;;;;;;;5.80;2.20;;;;;;;;;;5053558;27;96887;-70
2022/05/25 21:57:27;;;;;;;6.22;2.67;;;;;;;;;;5053211;27;97533;-70
2022/05/25 21:59:53;;;;;;;5.90;2.30;;;;;;;;;;5052938;27;95432;-73
2022/05/25 22:02:21;;;;;;;5.32;2.90;;;;;;;;;;5053860;27;96594;-71
2022/05/25 22:04:48;;;;;;;5.22;2.33;;;;;;;;;;5053100;27;97235;-71
2022/05/25 22:07:15;;;;;;;4.85;2.45;;;;;;;;;;5057571;27;95378;-71
2022/05/25 22:09:41;;;;;;;6.65;2.95;;;;;;;;;;5053899;27;97334;-71
2022/05/25 22:12:13;;;;;;;7.78;3.13;;;;;;;;;;5054752;27;95304;-73
2022/05/25 22:14:40;;;;;;;4.90;2.97;;;;;;;;;;5051969;27;96072;-71
2022/05/25 22:17:06;;;;;;;7.97;3.28;;;;;;;;;;5053397;27;97215;-70
2022/05/25 22:19:32;;;;;;;5.60;2.60;;;;;;;;;;5053600;27;95223;-73
2022/05/25 22:21:59;;;;;;;8.05;3.38;;;;;;;;;;5053405;27;95962;-74
2022/05/25 22:24:26;;;;;;;4.28;2.45;;;;;;;;;;5052652;27;97298;-76
2022/05/25 22:26:54;;;;;;;4.40;2.80;;;;;;;;;;5052934;27;95376;-73
2022/05/25 22:29:20;;;;;;;4.53;2.70;;;;;;;;;;5055659;27;96241;-72
2022/05/25 22:31:46;;;;;;;6.03;2.55;;;;;;;;;;5054030;27;95258;-73
2022/05/25 22:34:13;;;;;;;5.65;3.25;;;;;;;;;;5053018;27;96828;-72
2022/05/25 22:36:39;;;;;;;8.88;3.08;;;;;;;;;;5053152;27;97274;-70
2022/05/25 22:39:06;;;;;;;4.85;2.65;;;;;;;;;;5054401;27;95338;-70
2022/05/25 22:41:33;;;;;;;6.78;3.28;;;;;;;;;;5053344;27;95771;-72
2022/05/25 22:43:59;;;;;;;6.93;3.42;;;;;;;;;;5052765;27;97333;-73
2022/05/25 22:46:26;;;;;;;5.00;2.88;;;;;;;;;;5052140;27;95870;-70
2022/05/25 22:48:52;;;;;;;4.15;2.75;;;;;;;;;;5053786;27;97077;-70
2022/05/25 22:51:18;;;;;;;6.22;2.80;;;;;;;;;;5037700;27;96386;-73
2022/05/25 22:53:45;;;;;;;8.15;2.78;;;;;;;;;;5053982;27;95781;-70
2022/05/25 22:56:11;;;;;;;5.65;2.78;;;;;;;;;;5052730;27;97326;-71
2022/05/25 22:58:41;;;;;;;6.85;3.17;;;;;;;;;;5051730;27;95319;-70
2022/05/25 23:01:07;;;;;;;7.95;3.05;;;;;;;;;;5053637;27;95554;-71
2022/05/25 23:03:34;;;;;;;5.72;2.95;;;;;;;;;;5053424;27;97300;-71
2022/05/25 23:06:01;;;;;;;7.25;3.15;;;;;;;;;;5040378;27;95318;-72
2022/05/25 23:08:27;;;;;;;4.88;3.15;;;;;;;;;;5033246;28;96795;-73
2022/05/25 23:10:54;;;;;;;7.20;3.60;;;;;;;;;;5033080;28;97230;-71
2022/05/25 23:13:21;;;;;;;6.80;3.78;;;;;;;;;;5038279;27;95113;-71
2022/05/25 23:15:48;;;;;;;7.10;3.28;;;;;;;;;;5053221;27;97205;-72
2022/05/25 23:18:14;;;;;;;7.20;3.72;;;;;;;;;;5052688;27;95406;-72
2022/05/25 23:20:41;;;;;;;7.68;3.08;;;;;;;;;;5052875;27;98582;-71
2022/05/25 23:23:08;;;;;;;7.03;3.28;;;;;;;;;;5053099;27;97424;-70
2022/05/25 23:25:34;;;;;;;8.32;3.50;;;;;;;;;;5049070;27;95218;-71
2022/05/25 23:30:45;;;;;;;6.82;3.83;;;;;;;;;;5052304;27;97260;-74
2022/05/25 23:33:11;;;;;;;6.88;3.33;;;;;;;;;;5054158;27;95195;-71
2022/05/25 23:35:38;;;;;;;6.90;3.58;;;;;;;;;;5035490;27;97218;-74
2022/05/25 23:38:04;;;;;;;6.68;3.50;;;;;;;;;;5052098;27;95435;-74
2022/05/25 23:46:01;;;;;;;6.47;3.60;;;;;;;;;;5052226;27;95344;-72
2022/05/25 23:48:27;;;;;;;8.50;3.05;;;;;;;;;;5052082;27;96534;-73
2022/05/25 23:50:53;;;;;;;7.93;3.50;;;;;;;;;;5051958;27;97337;-72
2022/05/25 23:53:20;;;;;;;7.68;3.47;;;;;;;;;;5050422;27;95550;-74
2022/05/25 23:55:46;;;;;;;7.50;3.25;;;;;;;;;;5053631;27;96743;-76
2022/05/25 23:58:12;;;;;;;8.55;3.22;;;;;;;;;;5034143;27;95290;-71
